Amberson, Pennsylvania
Current Conditions -  °F | °C
As of 8:53 AM on Thursday 23 Oct 2014 (Local Time) from KHGR Reporting Station
Clear Clear  
Wind Chill: 52°   Ceiling: Unl
Heat Index: 52°   Visibility: 10mi
Dew Point: 41°   Wind: 20mph
Humidity: 66%   Direction: 320°NW
Pressure: 29.94"   Gusts: 26mph
Location:  40.17°N, 77.68°W
Report Text: KHGR 231253Z 32017G23KT 10SM CLR 11/05 A2994 RMK AO2 SLP148 T01110050
Loading
Personal Weather Stations






























Interactive Weather Map
Tropical Storm Tracking
New forecast layout! Learn more

10-Day Weather Forecast

Advertisements
Track Severe Weather on mobile